LNG Borno — ZCDW4 — position and weather

sailwx.info

Track history (hours):
 
Tides and Currents Weather Stations Pressure Air Temp Water Temp Dewpoint Dewpoint Depression Visibility Wind Speed Wind Dir Waves Ship Positions

LNG Borno

Last reported at 2018-Jan-21 19:55 UTC. Time now 2018-Jan-21 20:51 UTC.
Position N 09°16' W 017°27'.

Length 285 m; draft 11.4 m.

Type: Ship (hazmat cat A). MMSI: 310543000.

Date/timePositionNaut miles runAvg speedWind from/ knotsBaromVisibWave heightAir tempDewpointWater temp
2018-Jan-21 19:55N 09°16' W 017°27'815.9
2018-Jan-21 19:27N 09°09' W 017°24'715.7
2018-Jan-21 19:00N 09°02' W 017°22'815.8
2018-Jan-21 18:30N 08°55' W 017°20'815.7
2018-Jan-21 18:00N 08°47' W 017°17'815.9
2018-Jan-21 17:30N 08°40' W 017°15'917.3
2018-Jan-21 17:00N 08°31' W 017°12'814.5
2018-Jan-21 16:26N 08°24' W 017°10'715.7
2018-Jan-21 16:00N 08°17' W 017°08'1513.8
2018-Jan-21 14:53N 08°14' W 016°53'615.8
2018-Jan-21 14:30N 08°14' W 016°46'815.6
2018-Jan-21 13:59N 08°14' W 016°38'2316.5
2018-Jan-21 12:36N 08°15' W 016°15'1 8.7
2018-Jan-21 12:30N 08°15' W 016°14'5215.5
2018-Jan-21 09:08N 08°15' W 015°21'215.5
2018-Jan-21 09:00N 08°13' W 015°20'1215.7
2018-Jan-21 08:13N 08°04' W 015°12'316.0
2018-Jan-21 08:01N 08°01' W 015°10'1215.8
2018-Jan-21 07:15N 07°52' W 015°02'415.5
2018-Jan-21 07:00N 07°49' W 014°59'815.3
2018-Jan-21 06:30N 07°44' W 014°54'  
2018-Jan-12 13:54N 08°10' W 015°17'512.5
2018-Jan-12 13:30N 08°14' W 015°20'1012.7
2018-Jan-12 12:44N 08°21' W 015°27'312.9
2018-Jan-12 12:30N 08°23' W 015°29'713.6
2018-Jan-12 12:00N 08°28' W 015°33'714.6
2018-Jan-12 11:31N 08°34' W 015°38'714.6
2018-Jan-12 11:00N 08°39' W 015°43'1714.4
2018-Jan-12 09:49N 08°52' W 015°54'514.6
2018-Jan-12 09:30N 08°56' W 015°57'2116.6
2018-Jan-12 08:14N 09°12' W 016°11'418.7
2018-Jan-12 08:00N 09°15' W 016°13'918.5
2018-Jan-12 07:30N 09°22' W 016°20'815.3
2018-Jan-12 07:00N 09°27' W 016°26'914.2
2018-Jan-12 06:22N 09°35' W 016°31'514.3
2018-Jan-12 06:01N 09°39' W 016°34'814.1
2018-Jan-12 05:25N 09°45' W 016°40'814.3
2018-Jan-12 04:50N 09°51' W 016°45'614.2
2018-Jan-12 04:25N 09°56' W 016°49'614.2
2018-Jan-12 04:00N 10°00' W 016°53'713.9
2018-Jan-12 03:30N 10°05' W 016°58'4814.1
2018-Jan-12 00:08N 10°41' W 017°29'214.3
2018-Jan-12 00:00N 10°43' W 017°31'  
Track history (hours):
 
Tides and Currents Weather Stations Pressure Air Temp Water Temp Dewpoint Dewpoint Depression Visibility Wind Speed Wind Dir Waves Ship Positions

LNG Borno

Last reported at 2018-Jan-21 19:55 UTC. Time now 2018-Jan-21 20:51 UTC.
Position N 09°16' W 017°27'.

Length 285 m; draft 11.4 m.

Type: Ship (hazmat cat A). MMSI: 310543000.

Date/timePositionNaut miles runAvg speedWind from/ knotsBaromVisibWave heightAir tempDewpointWater temp
2018-Jan-21 19:55N 09°16' W 017°27'815.9
2018-Jan-21 19:27N 09°09' W 017°24'715.7
2018-Jan-21 19:00N 09°02' W 017°22'815.8
2018-Jan-21 18:30N 08°55' W 017°20'815.7
2018-Jan-21 18:00N 08°47' W 017°17'815.9
2018-Jan-21 17:30N 08°40' W 017°15'917.3
2018-Jan-21 17:00N 08°31' W 017°12'814.5
2018-Jan-21 16:26N 08°24' W 017°10'715.7
2018-Jan-21 16:00N 08°17' W 017°08'1513.8
2018-Jan-21 14:53N 08°14' W 016°53'615.8
2018-Jan-21 14:30N 08°14' W 016°46'815.6
2018-Jan-21 13:59N 08°14' W 016°38'2316.5
2018-Jan-21 12:36N 08°15' W 016°15'1 8.7
2018-Jan-21 12:30N 08°15' W 016°14'5215.5
2018-Jan-21 09:08N 08°15' W 015°21'215.5
2018-Jan-21 09:00N 08°13' W 015°20'1215.7
2018-Jan-21 08:13N 08°04' W 015°12'316.0
2018-Jan-21 08:01N 08°01' W 015°10'1215.8
2018-Jan-21 07:15N 07°52' W 015°02'415.5
2018-Jan-21 07:00N 07°49' W 014°59'815.3
2018-Jan-21 06:30N 07°44' W 014°54'  
2018-Jan-12 13:54N 08°10' W 015°17'512.5
2018-Jan-12 13:30N 08°14' W 015°20'1012.7
2018-Jan-12 12:44N 08°21' W 015°27'312.9
2018-Jan-12 12:30N 08°23' W 015°29'713.6
2018-Jan-12 12:00N 08°28' W 015°33'714.6
2018-Jan-12 11:31N 08°34' W 015°38'714.6
2018-Jan-12 11:00N 08°39' W 015°43'1714.4
2018-Jan-12 09:49N 08°52' W 015°54'514.6
2018-Jan-12 09:30N 08°56' W 015°57'2116.6
2018-Jan-12 08:14N 09°12' W 016°11'418.7
2018-Jan-12 08:00N 09°15' W 016°13'918.5
2018-Jan-12 07:30N 09°22' W 016°20'815.3
2018-Jan-12 07:00N 09°27' W 016°26'914.2
2018-Jan-12 06:22N 09°35' W 016°31'514.3
2018-Jan-12 06:01N 09°39' W 016°34'814.1
2018-Jan-12 05:25N 09°45' W 016°40'814.3
2018-Jan-12 04:50N 09°51' W 016°45'614.2
2018-Jan-12 04:25N 09°56' W 016°49'614.2
2018-Jan-12 04:00N 10°00' W 016°53'713.9
2018-Jan-12 03:30N 10°05' W 016°58'4814.1
2018-Jan-12 00:08N 10°41' W 017°29'214.3
2018-Jan-12 00:00N 10°43' W 017°31'  

Dump ship's entire track history